This is the latest recevied weather packets stored in our database for station/object W4NDF-13. If no packets are shown the sender has not sent any weather packets the latest 1 day(s).
| Time | Temp. | Humidity | Pressure | Rain* | Wind** | Luminosity | Snow |
|---|---|---|---|---|---|---|---|
| 1778031103 | 24.44° C | 85% | 1012.9 hPa | 0 mm | - | 0 W/m² | - |
| 1778030799 | 24.44° C | 84% | 1012.9 hPa | 0 mm | - | 0 W/m² | - |
| 1778030496 | 24.44° C | 83% | 1012.9 hPa | 0 mm | - | 0 W/m² | - |
| 1778029588 | 25° C | 82% | 1012.5 hPa | 0 mm | - | 0 W/m² | - |
| 1778029285 | 25° C | 82% | 1012.5 hPa | 0 mm | - | 0 W/m² | - |
| 1778028982 | 25° C | 82% | 1012.9 hPa | 0 mm | - | 0 W/m² | - |
| 1778028678 | 25° C | 82% | 1012.8 hPa | 0 mm | - | 1 W/m² | - |
| 1778028375 | 25° C | 82% | 1013 hPa | 0 mm | - | 1 W/m² | - |
| 1778028072 | 25° C | 81% | 1013.2 hPa | 0 mm | - | 2 W/m² | - |
| 1778027161 | 25° C | 80% | 1013.2 hPa | 0 mm | - | 14 W/m² | - |
| 1778026553 | 25° C | 79% | 1012.9 hPa | 0 mm | - | 25 W/m² | - |
| 1778023223 | 25.56° C | 76% | 1012.8 hPa | 0 mm | - | 39 W/m² | - |
| 1778022619 | 26.11° C | 76% | 1012.8 hPa | 0 mm | - | 37 W/m² | - |
| 1778021709 | 26.11° C | 75% | 1012.8 hPa | 0 mm | - | 177 W/m² | - |
| 1778021405 | 26.11° C | 75% | 1012.8 hPa | 0 mm | - | 116 W/m² | - |
| 1778021102 | 26.11° C | 74% | 1012.6 hPa | 0 mm | - | 136 W/m² | - |
| 1778020496 | 26.11° C | 74% | 1012.7 hPa | 0 mm | - | 152 W/m² | - |
| 1778019282 | 27.22° C | 71% | 1012.4 hPa | 0 mm | - | 193 W/m² | - |
| 1778018979 | 27.22° C | 70% | 1012.1 hPa | 0 mm | - | 343 W/m² | - |
| 1778018676 | 26.67° C | 72% | 1011.9 hPa | 0 mm | - | 316 W/m² | - |
| 1778017467 | 26.67° C | 72% | 1012.3 hPa | 0 mm | - | 457 W/m² | - |
| 1778017164 | 26.67° C | 71% | 1012.3 hPa | 0 mm | - | 260 W/m² | - |
| 1778015951 | 26.67° C | 72% | 1012.3 hPa | 0 mm | - | 264 W/m² | - |
| 1778013831 | 27.22° C | 70% | 1012.7 hPa | 0 mm | - | 337 W/m² | - |
| 1778012921 | 27.78° C | 66% | 1012.3 hPa | 0 mm | - | 543 W/m² | - |
* Rain latest hour (hover to see other rain measurements)
** Current wind speed in m/s (hover to see current wind gust speed)